Time;durP1;ratioP1;P1;durP2;ratioP2;P2;SDS_P1;SDS_P2;PMS_P1;PMS_P2;Temp;Humidity;BMP_temperature;BMP_pressure;BME280_temperature;BME280_humidity;BME280_pressure;Samples;Min_cycle;Max_cycle;Signal;HPM_P1;HPM_P2
2020/12/25 00:01:05;;;;;;;8.03;1.70;;;;;;;;;;12699304;23;20181;-64
2020/12/25 00:06:11;;;;;;;7.43;1.47;;;;;;;;;;12719015;23;20177;-65
2020/12/25 00:11:13;;;;;;;8.33;2.17;;;;;;;;;;12699730;23;20212;-64
2020/12/25 00:16:16;;;;;;;5.70;1.80;;;;;;;;;;12699171;23;20177;-64
2020/12/25 00:21:17;;;;;;;10.33;2.10;;;;;;;;;;12698432;23;20191;-64
2020/12/25 00:26:24;;;;;;;9.03;2.47;;;;;;;;;;12698514;23;20181;-64
2020/12/25 01:33:02;;;;;;;7.87;2.30;;;;;;;;;;12714883;23;20216;-60
2020/12/25 01:38:04;;;;;;;8.13;1.70;;;;;;;;;;12698542;23;20180;-64
2020/12/25 01:43:06;;;;;;;7.07;1.80;;;;;;;;;;12699251;23;20188;-64
2020/12/25 01:48:08;;;;;;;3.70;1.50;;;;;;;;;;12700779;23;20224;-64
2020/12/25 01:53:10;;;;;;;4.03;1.43;;;;;;;;;;12696807;23;20183;-64
2020/12/25 01:58:13;;;;;;;5.87;1.73;;;;;;;;;;12702628;23;20177;-63
2020/12/25 02:03:16;;;;;;;7.47;1.60;;;;;;;;;;12700738;23;20177;-65
2020/12/25 02:08:18;;;;;;;9.90;2.30;;;;;;;;;;12702520;23;20213;-64
2020/12/25 02:13:19;;;;;;;11.30;2.30;;;;;;;;;;12703031;23;20920;-63
2020/12/25 02:18:22;;;;;;;6.97;1.70;;;;;;;;;;12701858;23;20173;-63
2020/12/25 02:23:25;;;;;;;4.50;1.50;;;;;;;;;;12705903;23;20188;-63
2020/12/25 02:28:26;;;;;;;6.10;1.83;;;;;;;;;;12700881;23;20205;-64
2020/12/25 02:33:28;;;;;;;10.00;2.30;;;;;;;;;;12702455;23;20216;-64
2020/12/25 02:38:31;;;;;;;5.27;1.80;;;;;;;;;;12698858;23;20177;-63
2020/12/25 02:43:32;;;;;;;6.27;2.07;;;;;;;;;;12704539;23;20228;-64
2020/12/25 02:48:34;;;;;;;4.93;1.63;;;;;;;;;;12699955;23;20584;-64
2020/12/25 02:53:36;;;;;;;5.57;1.40;;;;;;;;;;12701114;23;20188;-64
2020/12/25 02:58:38;;;;;;;3.23;1.37;;;;;;;;;;12700748;23;20523;-64
2020/12/25 03:03:40;;;;;;;4.70;1.77;;;;;;;;;;12701179;23;20184;-64
2020/12/25 03:08:43;;;;;;;6.30;1.27;;;;;;;;;;12697670;23;20213;-64
2020/12/25 03:13:45;;;;;;;5.60;1.60;;;;;;;;;;12702067;23;20609;-64
2020/12/25 03:18:47;;;;;;;8.00;1.77;;;;;;;;;;12699428;23;20236;-64
2020/12/25 03:23:50;;;;;;;4.23;1.63;;;;;;;;;;12700501;23;20812;-64
2020/12/25 03:28:52;;;;;;;4.13;1.10;;;;;;;;;;12700544;23;20204;-64
2020/12/25 03:33:53;;;;;;;5.20;1.20;;;;;;;;;;12700717;23;20776;-64
2020/12/25 03:38:56;;;;;;;5.30;1.30;;;;;;;;;;12698324;23;20526;-64
2020/12/25 03:43:58;;;;;;;6.63;1.70;;;;;;;;;;12702255;23;20189;-65
2020/12/25 03:48:59;;;;;;;4.97;1.30;;;;;;;;;;12698226;23;20358;-64
2020/12/25 03:54:02;;;;;;;2.97;1.40;;;;;;;;;;12700669;23;20669;-64
2020/12/25 03:59:04;;;;;;;7.00;1.70;;;;;;;;;;12699408;23;20181;-64
2020/12/25 04:04:05;;;;;;;5.57;1.90;;;;;;;;;;12700771;23;20238;-65
2020/12/25 04:09:08;;;;;;;6.13;1.90;;;;;;;;;;12698124;23;20539;-64
2020/12/25 04:14:10;;;;;;;6.00;2.00;;;;;;;;;;12701294;23;20731;-64
2020/12/25 04:19:11;;;;;;;7.20;2.10;;;;;;;;;;12696454;23;20643;-64
2020/12/25 04:24:14;;;;;;;6.97;1.63;;;;;;;;;;12698697;23;20617;-65
2020/12/25 04:29:15;;;;;;;12.00;2.33;;;;;;;;;;12698600;23;20220;-64
2020/12/25 04:34:17;;;;;;;12.30;2.23;;;;;;;;;;12701203;23;20459;-64
2020/12/25 04:39:20;;;;;;;20.47;1.97;;;;;;;;;;12697528;23;20208;-64
2020/12/25 04:44:22;;;;;;;10.60;2.30;;;;;;;;;;12700186;23;20486;-64
2020/12/25 04:49:23;;;;;;;9.07;1.80;;;;;;;;;;12697640;23;20212;-63
2020/12/25 04:54:26;;;;;;;13.00;2.23;;;;;;;;;;12697729;23;20173;-64
2020/12/25 04:59:28;;;;;;;12.97;2.40;;;;;;;;;;12703074;23;20184;-64
2020/12/25 05:04:30;;;;;;;16.13;2.20;;;;;;;;;;12697543;23;20514;-64
2020/12/25 05:09:32;;;;;;;16.87;2.90;;;;;;;;;;12698553;23;20204;-64
2020/12/25 05:14:34;;;;;;;14.30;2.60;;;;;;;;;;12698286;23;20275;-64
2020/12/25 05:19:36;;;;;;;18.97;2.27;;;;;;;;;;12698374;23;20185;-64
2020/12/25 05:24:39;;;;;;;18.87;2.50;;;;;;;;;;12697409;23;20177;-64
2020/12/25 05:29:42;;;;;;;11.80;2.60;;;;;;;;;;12700912;23;20208;-64
2020/12/25 05:34:44;;;;;;;11.73;2.00;;;;;;;;;;12700411;23;20694;-64
2020/12/25 05:39:47;;;;;;;10.00;2.00;;;;;;;;;;12701868;23;20651;-64
2020/12/25 05:44:49;;;;;;;9.67;1.97;;;;;;;;;;12702053;23;20635;-64
2020/12/25 05:49:51;;;;;;;9.53;1.97;;;;;;;;;;12703059;23;20529;-64
2020/12/25 05:54:56;;;;;;;10.90;2.57;;;;;;;;;;12702270;23;20177;-64
2020/12/25 06:00:02;;;;;;;11.20;1.80;;;;;;;;;;12704537;23;20173;-64
2020/12/25 06:05:03;;;;;;;10.47;2.10;;;;;;;;;;12700018;23;20169;-64
2020/12/25 06:10:07;;;;;;;12.93;1.83;;;;;;;;;;12702449;23;20205;-64
2020/12/25 06:15:10;;;;;;;10.87;2.00;;;;;;;;;;12700394;23;20177;-64
2020/12/25 06:20:13;;;;;;;13.33;2.40;;;;;;;;;;12702697;23;20181;-64
2020/12/25 06:25:17;;;;;;;20.77;2.37;;;;;;;;;;12701644;23;20177;-64
2020/12/25 06:30:25;;;;;;;10.30;1.93;;;;;;;;;;12702986;23;20705;-64
2020/12/25 06:35:27;;;;;;;16.60;2.10;;;;;;;;;;12699486;23;20753;-64
2020/12/25 06:40:31;;;;;;;9.57;1.93;;;;;;;;;;12701914;23;20185;-64
2020/12/25 06:45:33;;;;;;;12.03;1.73;;;;;;;;;;12701370;23;20230;-63
2020/12/25 06:50:39;;;;;;;11.87;1.80;;;;;;;;;;12698366;23;20219;-63
2020/12/25 06:55:43;;;;;;;9.93;1.93;;;;;;;;;;12702968;23;20192;-63
2020/12/25 07:00:55;;;;;;;8.40;1.47;;;;;;;;;;12702141;23;20211;-64
2020/12/25 07:06:00;;;;;;;14.43;2.00;;;;;;;;;;12700324;23;20600;-64
2020/12/25 07:11:03;;;;;;;12.07;2.00;;;;;;;;;;12698747;23;20240;-64
2020/12/25 07:16:05;;;;;;;11.30;1.80;;;;;;;;;;12701651;23;20703;-64
2020/12/25 07:21:08;;;;;;;12.13;1.93;;;;;;;;;;12699390;23;20177;-64
2020/12/25 07:26:11;;;;;;;12.47;1.70;;;;;;;;;;12701694;23;20196;-63
2020/12/25 07:31:13;;;;;;;7.57;1.67;;;;;;;;;;12699447;23;20216;-64
2020/12/25 07:36:16;;;;;;;10.97;2.03;;;;;;;;;;12699718;23;20165;-63
2020/12/25 07:41:19;;;;;;;10.70;1.90;;;;;;;;;;12699229;23;20210;-64
2020/12/25 07:46:20;;;;;;;12.83;1.93;;;;;;;;;;12701375;23;20177;-63
2020/12/25 07:51:22;;;;;;;11.30;1.90;;;;;;;;;;12698394;23;20287;-63
2020/12/25 07:56:27;;;;;;;10.60;2.10;;;;;;;;;;12704376;23;20938;-63
2020/12/25 08:01:29;;;;;;;10.13;2.10;;;;;;;;;;12699143;23;20173;-64
2020/12/25 08:06:32;;;;;;;14.17;2.63;;;;;;;;;;12699485;23;20516;-64
2020/12/25 08:11:35;;;;;;;17.47;2.43;;;;;;;;;;12698410;23;20205;-65
2020/12/25 08:16:37;;;;;;;9.67;2.50;;;;;;;;;;12698001;23;20184;-64
2020/12/25 08:21:40;;;;;;;13.63;2.13;;;;;;;;;;12699831;23;20183;-64
2020/12/25 08:26:43;;;;;;;9.60;1.97;;;;;;;;;;12696890;23;20200;-64
2020/12/25 08:31:46;;;;;;;11.27;2.23;;;;;;;;;;12694031;23;20769;-62
2020/12/25 08:36:55;;;;;;;15.30;2.47;;;;;;;;;;12690558;23;20511;-62
2020/12/25 08:41:58;;;;;;;14.20;2.27;;;;;;;;;;12693895;23;20508;-61
2020/12/25 08:47:06;;;;;;;14.47;2.47;;;;;;;;;;12690715;23;20239;-62
2020/12/25 08:52:20;;;;;;;23.80;3.80;;;;;;;;;;12693120;23;20205;-61
2020/12/25 08:57:22;;;;;;;19.63;2.60;;;;;;;;;;12692906;23;20498;-62
2020/12/25 09:02:24;;;;;;;15.13;2.60;;;;;;;;;;12693615;23;20173;-62
2020/12/25 09:07:26;;;;;;;9.73;2.47;;;;;;;;;;12689333;23;20188;-62
2020/12/25 09:12:28;;;;;;;11.57;2.47;;;;;;;;;;12691213;23;20212;-63
2020/12/25 09:17:33;;;;;;;12.83;2.63;;;;;;;;;;12691209;23;20561;-62
2020/12/25 09:22:34;;;;;;;11.47;2.50;;;;;;;;;;12692972;23;20185;-63
2020/12/25 09:27:38;;;;;;;13.90;2.27;;;;;;;;;;12691848;23;20191;-64
2020/12/25 09:32:40;;;;;;;10.37;2.30;;;;;;;;;;12693249;23;20663;-64
2020/12/25 09:37:42;;;;;;;15.40;2.60;;;;;;;;;;12687342;23;20177;-63
2020/12/25 09:42:44;;;;;;;14.47;2.20;;;;;;;;;;12689754;23;20536;-63
2020/12/25 09:47:46;;;;;;;8.73;1.70;;;;;;;;;;12689550;23;20188;-63
2020/12/25 09:52:48;;;;;;;14.67;2.20;;;;;;;;;;12691501;23;20758;-63
2020/12/25 09:57:50;;;;;;;10.90;1.60;;;;;;;;;;12689224;23;20523;-63
2020/12/25 10:02:52;;;;;;;10.50;1.87;;;;;;;;;;12692948;23;20181;-63
2020/12/25 10:07:53;;;;;;;10.97;2.20;;;;;;;;;;12690690;23;20177;-63
2020/12/25 10:12:56;;;;;;;13.87;2.20;;;;;;;;;;12694023;23;20215;-63
2020/12/25 10:17:58;;;;;;;11.90;2.03;;;;;;;;;;12689702;23;20623;-63
2020/12/25 10:22:59;;;;;;;13.10;2.57;;;;;;;;;;12696425;23;20177;-63
2020/12/25 10:28:02;;;;;;;15.63;2.90;;;;;;;;;;12693445;23;20855;-63
2020/12/25 10:33:03;;;;;;;8.80;2.10;;;;;;;;;;12695520;23;20296;-63
2020/12/25 10:38:05;;;;;;;22.30;2.77;;;;;;;;;;12690252;23;20177;-63
2020/12/25 10:43:08;;;;;;;13.20;2.50;;;;;;;;;;12696466;23;20513;-63
2020/12/25 10:48:10;;;;;;;9.07;2.20;;;;;;;;;;12697382;23;20181;-63
2020/12/25 10:53:12;;;;;;;13.93;2.67;;;;;;;;;;12695810;23;20188;-63
2020/12/25 10:58:15;;;;;;;11.63;2.87;;;;;;;;;;12695435;23;20180;-63
2020/12/25 11:03:17;;;;;;;14.17;2.70;;;;;;;;;;12692430;23;20529;-64
2020/12/25 11:08:18;;;;;;;10.07;2.70;;;;;;;;;;12693416;23;20189;-62
2020/12/25 11:13:23;;;;;;;13.37;2.57;;;;;;;;;;12691836;23;20181;-63
2020/12/25 11:18:25;;;;;;;12.27;2.43;;;;;;;;;;12693912;23;20181;-64
2020/12/25 11:23:26;;;;;;;19.07;2.70;;;;;;;;;;12692269;23;20191;-63
2020/12/25 11:28:29;;;;;;;12.80;2.33;;;;;;;;;;12695008;23;20209;-63
2020/12/25 11:33:32;;;;;;;12.53;2.57;;;;;;;;;;12696919;23;20209;-63
2020/12/25 11:38:34;;;;;;;16.23;2.13;;;;;;;;;;12697810;23;20804;-64
2020/12/25 11:43:43;;;;;;;12.07;2.10;;;;;;;;;;12697433;23;20169;-62
2020/12/25 11:48:46;;;;;;;12.67;2.23;;;;;;;;;;12697031;23;20765;-63
2020/12/25 11:53:51;;;;;;;10.13;1.83;;;;;;;;;;12696117;23;20232;-62
2020/12/25 11:58:54;;;;;;;9.40;1.67;;;;;;;;;;12699497;23;20174;-62
2020/12/25 12:03:56;;;;;;;8.33;1.80;;;;;;;;;;12696529;23;20177;-62
2020/12/25 12:08:57;;;;;;;7.77;2.17;;;;;;;;;;12697143;23;20205;-62
2020/12/25 12:14:03;;;;;;;6.87;1.63;;;;;;;;;;12699227;23;20185;-62
2020/12/25 12:19:04;;;;;;;11.23;2.10;;;;;;;;;;12698954;23;20991;-62
2020/12/25 12:24:06;;;;;;;18.30;2.30;;;;;;;;;;12696323;23;20177;-61
2020/12/25 12:29:09;;;;;;;19.17;2.70;;;;;;;;;;12720399;23;20230;-62
2020/12/25 12:34:10;;;;;;;15.00;2.50;;;;;;;;;;12695823;23;20647;-62
2020/12/25 12:39:12;;;;;;;17.33;4.87;;;;;;;;;;12698573;23;20497;-62
2020/12/25 12:44:21;;;;;;;13.97;2.10;;;;;;;;;;12698936;23;20169;-62
2020/12/25 12:49:23;;;;;;;14.30;2.40;;;;;;;;;;12697510;23;20705;-62
2020/12/25 12:54:25;;;;;;;11.23;2.40;;;;;;;;;;12695968;23;20188;-62
2020/12/25 12:59:27;;;;;;;11.87;2.50;;;;;;;;;;12698400;23;20635;-62
2020/12/25 13:04:29;;;;;;;16.37;1.90;;;;;;;;;;12696211;23;20173;-62
2020/12/25 13:09:31;;;;;;;7.03;1.40;;;;;;;;;;12697449;23;20754;-62
2020/12/25 13:14:41;;;;;;;9.07;1.90;;;;;;;;;;12696844;23;20169;-62
2020/12/25 13:19:43;;;;;;;12.63;1.90;;;;;;;;;;12697885;23;20648;-62
2020/12/25 13:24:44;;;;;;;9.57;2.20;;;;;;;;;;12696872;23;20709;-62
2020/12/25 13:29:47;;;;;;;10.33;2.03;;;;;;;;;;12698833;23;20220;-62
2020/12/25 13:34:48;;;;;;;12.03;2.47;;;;;;;;;;12697491;23;20235;-62
2020/12/25 13:39:50;;;;;;;8.33;1.67;;;;;;;;;;12700489;23;20176;-61
2020/12/25 13:45:02;;;;;;;10.70;1.93;;;;;;;;;;12721065;23;20244;-62
2020/12/25 13:50:04;;;;;;;10.50;1.90;;;;;;;;;;12693869;23;20737;-62
2020/12/25 13:55:06;;;;;;;4.50;1.60;;;;;;;;;;12699816;23;20264;-62
2020/12/25 14:00:08;;;;;;;8.23;1.70;;;;;;;;;;12700938;23;20180;-61
2020/12/25 14:05:10;;;;;;;6.57;1.80;;;;;;;;;;12701592;23;20192;-62
2020/12/25 14:10:12;;;;;;;9.30;2.00;;;;;;;;;;12701357;23;20372;-62
2020/12/25 14:15:21;;;;;;;7.13;1.60;;;;;;;;;;12722989;23;20628;-62
2020/12/25 14:20:23;;;;;;;6.83;1.90;;;;;;;;;;12699938;23;20184;-62
2020/12/25 14:25:25;;;;;;;7.10;1.70;;;;;;;;;;12702826;23;20177;-61
2020/12/25 14:30:28;;;;;;;7.17;1.87;;;;;;;;;;12700854;23;20221;-62
2020/12/25 14:35:30;;;;;;;4.37;1.67;;;;;;;;;;12700186;23;20213;-62
2020/12/25 14:40:34;;;;;;;8.70;2.20;;;;;;;;;;12699827;23;20658;-62
2020/12/25 14:45:44;;;;;;;10.70;1.90;;;;;;;;;;12721273;23;20177;-62
2020/12/25 14:50:46;;;;;;;8.73;2.20;;;;;;;;;;12698318;23;20209;-62
2020/12/25 14:55:48;;;;;;;4.87;1.80;;;;;;;;;;12701920;23;20198;-62
2020/12/25 15:00:51;;;;;;;5.77;1.90;;;;;;;;;;12699093;23;20181;-61
2020/12/25 15:05:53;;;;;;;6.87;2.00;;;;;;;;;;12697810;23;20173;-62
2020/12/25 15:10:55;;;;;;;10.47;2.43;;;;;;;;;;12697276;23;20740;-62
2020/12/25 15:16:01;;;;;;;12.47;2.17;;;;;;;;;;12722825;23;20177;-63
2020/12/25 15:21:03;;;;;;;10.17;2.23;;;;;;;;;;12698290;23;20173;-62
2020/12/25 15:26:04;;;;;;;11.13;3.17;;;;;;;;;;12700627;23;20188;-62
2020/12/25 15:31:08;;;;;;;5.60;1.83;;;;;;;;;;12700179;23;20213;-62
2020/12/25 15:36:14;;;;;;;9.03;1.77;;;;;;;;;;12699514;23;20755;-61
2020/12/25 15:41:16;;;;;;;12.20;1.70;;;;;;;;;;12719162;23;20176;-61
2020/12/25 15:46:20;;;;;;;11.63;2.53;;;;;;;;;;12701059;23;20244;-61
2020/12/25 15:51:22;;;;;;;7.13;2.10;;;;;;;;;;12696551;23;20232;-62
2020/12/25 15:56:24;;;;;;;7.13;2.10;;;;;;;;;;12701820;23;20183;-61
2020/12/25 16:01:31;;;;;;;9.83;2.00;;;;;;;;;;12697892;23;20635;-61
2020/12/25 16:06:33;;;;;;;12.23;3.10;;;;;;;;;;12720608;23;20176;-61
2020/12/25 16:11:35;;;;;;;12.93;3.17;;;;;;;;;;12697973;23;20208;-62
2020/12/25 16:16:40;;;;;;;11.07;4.03;;;;;;;;;;12700809;23;20177;-62
2020/12/25 16:21:44;;;;;;;11.93;4.70;;;;;;;;;;12697908;23;20302;-63
2020/12/25 16:26:46;;;;;;;14.33;5.10;;;;;;;;;;12699500;23;20588;-60
2020/12/25 16:31:49;;;;;;;17.23;5.00;;;;;;;;;;12698040;23;21080;-60
2020/12/25 16:36:53;;;;;;;12.53;4.90;;;;;;;;;;12700651;23;20201;-61
2020/12/25 16:41:55;;;;;;;15.50;5.70;;;;;;;;;;12702438;23;20228;-61
2020/12/25 16:47:00;;;;;;;17.37;6.13;;;;;;;;;;12695792;23;20188;-61
2020/12/25 16:52:02;;;;;;;15.10;6.40;;;;;;;;;;12697351;23;20208;-61
2020/12/25 16:57:04;;;;;;;12.73;5.03;;;;;;;;;;12699492;23;20256;-61
2020/12/25 17:02:07;;;;;;;18.80;5.27;;;;;;;;;;12698944;23;20180;-61
2020/12/25 17:07:08;;;;;;;13.60;4.63;;;;;;;;;;12695739;23;20524;-61
2020/12/25 17:12:10;;;;;;;10.23;3.60;;;;;;;;;;12699799;23;20773;-61
2020/12/25 17:17:19;;;;;;;10.93;4.50;;;;;;;;;;12717764;23;20244;-61
2020/12/25 17:22:23;;;;;;;13.13;5.07;;;;;;;;;;12698956;23;20177;-61
2020/12/25 17:27:25;;;;;;;17.97;5.10;;;;;;;;;;12698870;23;20204;-61
2020/12/25 17:32:28;;;;;;;15.57;5.07;;;;;;;;;;12701535;23;20243;-61
2020/12/25 17:37:30;;;;;;;14.10;4.67;;;;;;;;;;12719687;23;20169;-61
2020/12/25 17:42:46;;;;;;;14.17;5.20;;;;;;;;;;12722382;23;20579;-61
2020/12/25 17:47:49;;;;;;;12.07;5.17;;;;;;;;;;12702502;23;20183;-61
2020/12/25 17:52:51;;;;;;;8.30;3.80;;;;;;;;;;12700678;23;20205;-61
2020/12/25 17:57:52;;;;;;;8.97;3.50;;;;;;;;;;12702688;23;20187;-60
2020/12/25 18:02:55;;;;;;;11.17;4.10;;;;;;;;;;12703743;23;20179;-61
2020/12/25 18:07:56;;;;;;;8.07;4.23;;;;;;;;;;12698078;23;20661;-61
2020/12/25 18:12:58;;;;;;;13.73;5.87;;;;;;;;;;12702870;23;20208;-61
2020/12/25 18:18:01;;;;;;;14.43;6.43;;;;;;;;;;12700575;23;20173;-61
2020/12/25 18:23:02;;;;;;;18.33;6.23;;;;;;;;;;12700961;23;20196;-61
2020/12/25 18:28:04;;;;;;;12.43;5.80;;;;;;;;;;12701616;23;20200;-60
2020/12/25 18:33:06;;;;;;;13.47;6.17;;;;;;;;;;12701075;23;20703;-60
2020/12/25 18:38:08;;;;;;;14.87;6.10;;;;;;;;;;12699006;23;20188;-61
2020/12/25 18:43:11;;;;;;;18.37;7.00;;;;;;;;;;12703070;23;20230;-61
2020/12/25 18:48:15;;;;;;;18.10;6.17;;;;;;;;;;12699350;23;20173;-61
2020/12/25 18:53:16;;;;;;;14.23;5.63;;;;;;;;;;12701181;23;20701;-61
2020/12/25 18:58:19;;;;;;;22.90;6.47;;;;;;;;;;12699128;23;20177;-61
2020/12/25 19:03:21;;;;;;;18.90;5.40;;;;;;;;;;12702599;23;20173;-61
2020/12/25 19:08:24;;;;;;;15.60;6.30;;;;;;;;;;12698866;23;20511;-61
2020/12/25 19:13:26;;;;;;;15.73;5.97;;;;;;;;;;12697964;23;20208;-62
2020/12/25 19:18:35;;;;;;;16.70;6.20;;;;;;;;;;12701860;23;20236;-61
2020/12/25 19:23:36;;;;;;;34.03;10.60;;;;;;;;;;12698718;23;20889;-61
2020/12/25 19:28:38;;;;;;;33.53;9.33;;;;;;;;;;12701346;23;20523;-61
2020/12/25 19:33:41;;;;;;;23.47;10.20;;;;;;;;;;12700504;23;20231;-61
2020/12/25 19:38:45;;;;;;;21.83;10.93;;;;;;;;;;12698963;23;20264;-62
2020/12/25 19:43:49;;;;;;;29.67;11.90;;;;;;;;;;12699263;23;20178;-62
2020/12/25 19:48:53;;;;;;;26.50;10.93;;;;;;;;;;12699339;23;20197;-62
2020/12/25 19:53:55;;;;;;;31.67;12.97;;;;;;;;;;12698043;23;20288;-62
2020/12/25 19:58:57;;;;;;;29.87;11.70;;;;;;;;;;12702327;23;20203;-62
2020/12/25 20:04:01;;;;;;;35.87;14.23;;;;;;;;;;12696616;23;20189;-61
2020/12/25 20:09:03;;;;;;;30.43;12.53;;;;;;;;;;12700047;23;20191;-62
2020/12/25 20:14:04;;;;;;;25.73;11.70;;;;;;;;;;12698198;23;20220;-62
2020/12/25 20:19:12;;;;;;;28.33;13.13;;;;;;;;;;12701827;23;20521;-61
2020/12/25 20:24:13;;;;;;;35.37;15.40;;;;;;;;;;12696425;23;20663;-62
2020/12/25 20:29:15;;;;;;;42.27;19.43;;;;;;;;;;12700690;23;20513;-61
2020/12/25 20:34:18;;;;;;;37.23;17.83;;;;;;;;;;12697297;23;20205;-61
2020/12/25 20:39:20;;;;;;;38.13;17.13;;;;;;;;;;12699153;23;20843;-62
2020/12/25 20:44:21;;;;;;;42.30;19.13;;;;;;;;;;12699611;23;20173;-61
2020/12/25 20:49:33;;;;;;;34.20;16.80;;;;;;;;;;12719266;23;20273;-61
2020/12/25 20:54:35;;;;;;;34.30;15.63;;;;;;;;;;12697086;23;20654;-61
2020/12/25 20:59:37;;;;;;;28.30;14.10;;;;;;;;;;12696949;23;21005;-61
2020/12/25 21:04:40;;;;;;;32.23;12.60;;;;;;;;;;12696004;23;20499;-61
2020/12/25 21:09:42;;;;;;;32.10;11.50;;;;;;;;;;12697255;23;20208;-61
2020/12/25 21:14:43;;;;;;;25.93;11.20;;;;;;;;;;12700908;23;20236;-62
2020/12/25 21:19:52;;;;;;;31.00;10.23;;;;;;;;;;12718883;23;20183;-62
2020/12/25 21:24:54;;;;;;;27.37;11.77;;;;;;;;;;12700872;23;20195;-62
2020/12/25 21:29:55;;;;;;;29.43;11.00;;;;;;;;;;12696782;23;20837;-61
2020/12/25 21:34:58;;;;;;;20.73;9.00;;;;;;;;;;12696267;23;20217;-61
2020/12/25 21:40:00;;;;;;;19.93;8.60;;;;;;;;;;12697588;23;20177;-61
2020/12/25 21:45:03;;;;;;;24.70;8.20;;;;;;;;;;12700229;23;20185;-62
2020/12/25 21:50:11;;;;;;;22.97;8.73;;;;;;;;;;12695887;23;20292;-62
2020/12/25 21:55:13;;;;;;;20.93;7.63;;;;;;;;;;12699542;23;20183;-61
2020/12/25 22:00:15;;;;;;;18.80;7.97;;;;;;;;;;12697855;23;20173;-63
2020/12/25 22:05:18;;;;;;;30.33;8.97;;;;;;;;;;12697791;23;20678;-62
2020/12/25 22:10:20;;;;;;;16.27;8.20;;;;;;;;;;12696506;23;20211;-61
2020/12/25 22:15:22;;;;;;;19.40;8.57;;;;;;;;;;12701976;23;20194;-62
2020/12/25 22:20:45;;;;;;;25.47;8.97;;;;;;;;;;12699901;23;20231;-62
2020/12/25 22:25:47;;;;;;;32.87;11.53;;;;;;;;;;12701861;23;20181;-61
2020/12/25 22:30:49;;;;;;;27.67;11.57;;;;;;;;;;12700687;23;20221;-61
2020/12/25 22:35:51;;;;;;;33.30;12.07;;;;;;;;;;12704445;23;20205;-61
2020/12/25 22:40:53;;;;;;;23.47;10.07;;;;;;;;;;12700020;23;20177;-61
2020/12/25 22:45:55;;;;;;;27.07;9.33;;;;;;;;;;12700564;23;20180;-61
2020/12/25 22:50:57;;;;;;;23.33;9.57;;;;;;;;;;12699051;23;20220;-62
2020/12/25 22:55:59;;;;;;;21.80;10.03;;;;;;;;;;12702905;23;20185;-61
2020/12/25 23:01:01;;;;;;;24.03;10.33;;;;;;;;;;12700857;23;20251;-61
2020/12/25 23:06:03;;;;;;;21.73;9.67;;;;;;;;;;12698601;23;20177;-61
2020/12/25 23:11:05;;;;;;;27.70;9.30;;;;;;;;;;12701445;23;20215;-61
2020/12/25 23:16:10;;;;;;;22.80;9.73;;;;;;;;;;12697886;23;20517;-61
2020/12/25 23:21:14;;;;;;;24.27;10.87;;;;;;;;;;12700616;23;20180;-61
2020/12/25 23:26:16;;;;;;;25.23;9.43;;;;;;;;;;12699810;23;20248;-62
2020/12/25 23:31:18;;;;;;;23.83;8.97;;;;;;;;;;12700605;23;20599;-61
2020/12/25 23:36:22;;;;;;;26.77;10.80;;;;;;;;;;12696174;23;20205;-62
2020/12/25 23:41:24;;;;;;;21.90;9.77;;;;;;;;;;12700480;23;20239;-61
2020/12/25 23:46:26;;;;;;;29.80;10.17;;;;;;;;;;12700036;23;20180;-61
2020/12/25 23:51:36;;;;;;;22.93;9.60;;;;;;;;;;12699515;23;20201;-61
2020/12/25 23:56:38;;;;;;;23.27;9.13;;;;;;;;;;12698629;23;20177;-62
